Time;durP1;ratioP1;P1;durP2;ratioP2;P2;SDS_P1;SDS_P2;PMS_P1;PMS_P2;Temp;Humidity;BMP_temperature;BMP_pressure;BME280_temperature;BME280_humidity;BME280_pressure;Samples;Min_cycle;Max_cycle;Signal;HPM_P1;HPM_P2
2022/05/27 00:00:04;;;;;;;;;;;;;;;15.26;69.45;101958.72;5075110;28;19935;-57
2022/05/27 00:02:30;;;;;;;;;;;;;;;15.24;69.01;101958.06;5075588;28;20011;-57
2022/05/27 00:04:55;;;;;;;;;;;;;;;15.19;69.18;101959.38;5065306;28;20335;-58
2022/05/27 00:07:20;;;;;;;;;;;;;;;15.12;69.12;101955.72;5072037;28;19921;-57
2022/05/27 00:09:45;;;;;;;;;;;;;;;15.14;69.20;101953.69;5067718;28;19987;-57
2022/05/27 00:12:10;;;;;;;;;;;;;;;15.15;69.38;101942.00;5077956;28;19947;-58
2022/05/27 00:14:36;;;;;;;;;;;;;;;15.27;69.25;101955.06;5078787;28;19981;-57
2022/05/27 00:17:01;;;;;;;;;;;;;;;15.19;69.51;101954.03;5073108;28;20321;-57
2022/05/27 00:19:26;;;;;;;;;;;;;;;15.34;69.48;101945.38;5083690;28;19921;-58
2022/05/27 00:21:51;;;;;;;;;;;;;;;15.11;69.55;101951.38;5078911;28;19924;-57
2022/05/27 00:24:16;;;;;;;;;;;;;;;15.34;69.56;101950.72;5075646;28;19967;-57
2022/05/27 00:26:41;;;;;;;;;;;;;;;15.14;70.01;101942.19;5071388;28;19964;-57
2022/05/27 00:29:07;;;;;;;;;;;;;;;15.28;69.96;101943.34;5073601;28;19958;-57
2022/05/27 00:31:34;;;;;;;;;;;;;;;15.22;70.07;101941.34;5072054;28;21273;-57
2022/05/27 00:33:59;;;;;;;;;;;;;;;14.98;70.21;101940.31;5064424;28;20584;-58
2022/05/27 00:36:24;;;;;;;;;;;;;;;15.10;70.71;101939.00;5073637;28;19966;-57
2022/05/27 00:38:49;;;;;;;;;;;;;;;15.00;70.40;101943.66;5075419;28;19921;-57
2022/05/27 00:41:15;;;;;;;;;;;;;;;15.01;70.75;101940.00;5072108;28;19927;-58
2022/05/27 00:43:41;;;;;;;;;;;;;;;15.04;70.33;101939.66;5077706;28;19928;-58
2022/05/27 00:46:18;;;;;;;;;;;;;;;15.10;70.66;101936.31;5071695;28;19925;-57
2022/05/27 00:48:45;;;;;;;;;;;;;;;15.12;70.48;101930.81;5073747;28;20375;-58
2022/05/27 00:51:16;;;;;;;;;;;;;;;15.12;70.72;101939.69;5072243;28;19951;-58
2022/05/27 00:53:43;;;;;;;;;;;;;;;15.17;70.58;101929.34;5075817;28;19925;-57
2022/05/27 00:56:10;;;;;;;;;;;;;;;15.15;71.15;101936.66;5081222;28;19951;-58
2022/05/27 00:58:43;;;;;;;;;;;;;;;15.10;70.78;101925.63;5076716;28;19947;-56
2022/05/27 01:01:08;;;;;;;;;;;;;;;15.01;71.26;101927.44;5080604;28;19928;-58
2022/05/27 01:03:35;;;;;;;;;;;;;;;15.16;71.46;101927.66;5074569;28;19973;-58
2022/05/27 01:06:00;;;;;;;;;;;;;;;14.88;71.39;101925.28;5081452;28;20392;-57
2022/05/27 01:08:28;;;;;;;;;;;;;;;15.06;71.82;101926.97;5071705;28;19920;-58
2022/05/27 01:10:56;;;;;;;;;;;;;;;14.97;71.88;101925.28;5071786;28;19924;-57
2022/05/27 01:13:39;;;;;;;;;;;;;;;15.03;72.26;101927.28;5072570;28;19920;-58
2022/05/27 01:16:13;;;;;;;;;;;;;;;14.92;73.01;101921.25;5073221;28;20278;-58
2022/05/27 01:20:18;;;;;;;;;;;;;;;14.83;72.96;101916.91;5072291;28;20050;-57
2022/05/27 01:21:53;;;;;;;;;;;;;;;14.87;73.59;101915.59;5073349;28;20545;-57
2022/05/27 01:24:47;;;;;;;;;;;;;;;14.76;73.48;101921.25;5072999;28;19925;-58
2022/05/27 01:27:29;;;;;;;;;;;;;;;14.93;73.87;101928.31;5071362;28;20030;-57
2022/05/27 01:30:04;;;;;;;;;;;;;;;14.75;74.37;101924.91;5077071;28;20478;-58
2022/05/27 01:32:48;;;;;;;;;;;;;;;14.63;74.31;101919.84;5074219;28;19974;-58
2022/05/27 01:35:19;;;;;;;;;;;;;;;14.70;75.41;101913.84;5067924;28;20374;-58
2022/05/27 01:37:49;;;;;;;;;;;;;;;14.57;75.45;101917.81;5067762;28;19924;-57
2022/05/27 01:40:31;;;;;;;;;;;;;;;14.63;76.00;101922.50;5072917;28;20007;-58
2022/05/27 01:42:56;;;;;;;;;;;;;;;14.62;76.32;101920.00;5066919;28;19965;-57
2022/05/27 01:45:26;;;;;;;;;;;;;;;14.47;76.27;101922.44;5053714;28;20003;-58
2022/05/27 01:47:57;;;;;;;;;;;;;;;14.58;77.19;101916.81;5070256;28;20451;-58
2022/05/27 01:50:22;;;;;;;;;;;;;;;14.50;77.42;101916.78;5068659;28;20589;-58
2022/05/27 01:52:58;;;;;;;;;;;;;;;14.34;77.40;101922.88;5073172;28;20002;-57
2022/05/27 01:55:34;;;;;;;;;;;;;;;14.42;78.14;101924.75;5068392;28;19935;-58
2022/05/27 01:58:06;;;;;;;;;;;;;;;14.34;77.84;101917.53;5061337;28;20015;-57
2022/05/27 02:00:34;;;;;;;;;;;;;;;14.37;78.95;101920.72;5070277;28;19937;-57
2022/05/27 02:03:06;;;;;;;;;;;;;;;14.29;79.54;101912.69;5076389;28;20011;-58
2022/05/27 02:05:31;;;;;;;;;;;;;;;14.29;79.77;101920.69;5068816;28;19927;-58
2022/05/27 02:08:03;;;;;;;;;;;;;;;14.25;79.86;101914.00;5069427;28;20475;-57
2022/05/27 02:10:41;;;;;;;;;;;;;;;14.08;79.87;101919.28;5069243;28;20400;-58
2022/05/27 02:13:10;;;;;;;;;;;;;;;14.07;79.81;101917.56;5060864;28;20427;-58
2022/05/27 02:15:38;;;;;;;;;;;;;;;14.08;80.77;101919.28;5079366;28;20374;-58
2022/05/27 02:18:16;;;;;;;;;;;;;;;13.96;80.31;101912.53;5072789;28;20054;-58
2022/05/27 02:20:45;;;;;;;;;;;;;;;14.10;81.07;101914.59;5069369;28;19989;-58
2022/05/27 02:23:30;;;;;;;;;;;;;;;14.03;81.46;101918.91;5074416;28;19991;-58
2022/05/27 02:25:57;;;;;;;;;;;;;;;13.94;81.51;101918.03;5064997;28;19920;-57
2022/05/27 02:28:25;;;;;;;;;;;;;;;13.91;81.17;101917.50;5071857;28;19927;-57
2022/05/27 02:30:52;;;;;;;;;;;;;;;13.93;81.66;101910.19;5066896;28;19928;-57
2022/05/27 02:36:06;;;;;;;;;;;;;;;13.98;82.71;101916.69;5072266;28;19944;-57
2022/05/27 02:38:31;;;;;;;;;;;;;;;13.85;82.43;101909.13;5070131;28;20367;-57
2022/05/27 02:41:02;;;;;;;;;;;;;;;13.88;83.32;101907.13;5069083;28;19927;-58
2022/05/27 02:43:46;;;;;;;;;;;;;;;13.77;83.73;101903.72;5070781;28;19936;-57
2022/05/27 02:46:11;;;;;;;;;;;;;;;13.79;82.96;101903.59;5070637;28;20026;-57
2022/05/27 02:48:55;;;;;;;;;;;;;;;13.80;82.97;101898.09;5072372;28;20012;-58
2022/05/27 02:51:21;;;;;;;;;;;;;;;13.80;83.62;101914.09;5066503;28;20439;-58
2022/05/27 02:54:01;;;;;;;;;;;;;;;13.85;84.33;101919.81;5072046;28;19928;-58
2022/05/27 02:56:39;;;;;;;;;;;;;;;13.71;83.67;101912.34;5064399;28;19920;-58
2022/05/27 02:59:05;;;;;;;;;;;;;;;13.77;84.17;101910.91;5060880;28;19929;-58
2022/05/27 03:01:31;;;;;;;;;;;;;;;13.69;83.34;101909.03;5067547;28;20040;-59
2022/05/27 03:03:56;;;;;;;;;;;;;;;13.84;84.57;101903.94;5069458;28;19924;-58
2022/05/27 03:06:27;;;;;;;;;;;;;;;13.71;84.35;101901.69;5067902;28;19927;-57
2022/05/27 03:08:59;;;;;;;;;;;;;;;13.74;85.09;101896.06;5068010;28;19999;-57
2022/05/27 03:11:44;;;;;;;;;;;;;;;13.61;84.58;101893.81;5066452;28;20571;-58
2022/05/27 03:14:09;;;;;;;;;;;;;;;13.76;85.26;101904.72;5070008;28;19916;-57
2022/05/27 03:16:53;;;;;;;;;;;;;;;13.64;85.15;101895.31;5060952;28;19950;-57
2022/05/27 03:19:33;;;;;;;;;;;;;;;13.67;85.47;101895.03;5062978;28;19966;-58
2022/05/27 03:22:07;;;;;;;;;;;;;;;13.66;85.48;101904.00;5066639;28;20271;-58
2022/05/27 03:24:51;;;;;;;;;;;;;;;13.62;85.65;101899.97;5076877;28;19943;-58
2022/05/27 03:27:25;;;;;;;;;;;;;;;13.68;85.98;101891.34;5073845;28;20041;-57
2022/05/27 03:29:56;;;;;;;;;;;;;;;13.62;85.75;101903.47;5070237;28;20013;-58
2022/05/27 03:32:31;;;;;;;;;;;;;;;13.57;86.46;101900.47;5066742;28;19920;-57
2022/05/27 03:35:01;;;;;;;;;;;;;;;13.64;86.63;101904.16;5068599;28;19955;-57
2022/05/27 03:37:37;;;;;;;;;;;;;;;13.52;88.08;101903.56;5072164;28;20137;-58
2022/05/27 03:40:02;;;;;;;;;;;;;;;13.51;86.28;101901.91;5070517;28;19920;-57
2022/05/27 03:42:29;;;;;;;;;;;;;;;13.59;86.69;101904.59;5070257;28;19955;-58
2022/05/27 03:45:09;;;;;;;;;;;;;;;13.52;89.07;101913.41;5083580;28;20378;-58
2022/05/27 03:47:36;;;;;;;;;;;;;;;13.45;90.44;101915.81;5070432;28;19919;-58
2022/05/27 03:50:02;;;;;;;;;;;;;;;13.46;87.72;101920.16;5070793;28;20402;-58
2022/05/27 03:52:29;;;;;;;;;;;;;;;13.52;87.76;101913.41;5072036;28;19921;-57
2022/05/27 03:54:54;;;;;;;;;;;;;;;13.61;87.54;101919.63;5067742;28;19920;-58
2022/05/27 03:57:20;;;;;;;;;;;;;;;13.50;88.15;101913.56;5065033;28;19920;-58
2022/05/27 03:59:46;;;;;;;;;;;;;;;13.51;87.17;101901.06;5071438;28;20394;-57
2022/05/27 04:02:12;;;;;;;;;;;;;;;13.55;87.14;101907.75;5063725;28;19925;-58
2022/05/27 04:04:37;;;;;;;;;;;;;;;13.53;86.73;101902.56;5074101;28;20006;-58
2022/05/27 04:07:03;;;;;;;;;;;;;;;13.58;87.06;101908.28;5063232;28;19962;-57
2022/05/27 04:09:28;;;;;;;;;;;;;;;13.55;86.16;101908.59;5066075;28;20287;-57
2022/05/27 04:11:54;;;;;;;;;;;;;;;13.56;86.02;101907.59;5068057;28;20417;-57
2022/05/27 04:14:19;;;;;;;;;;;;;;;13.61;86.68;101919.63;5074372;28;19927;-58
2022/05/27 04:16:44;;;;;;;;;;;;;;;13.57;86.20;101917.25;5066932;28;19929;-57
2022/05/27 04:19:10;;;;;;;;;;;;;;;13.58;86.60;101918.94;5070366;28;19928;-58
2022/05/27 04:21:36;;;;;;;;;;;;;;;13.58;86.44;101918.13;5072736;28;20011;-57
2022/05/27 04:24:01;;;;;;;;;;;;;;;13.58;86.80;101924.25;5058897;28;19920;-58
2022/05/27 04:26:26;;;;;;;;;;;;;;;13.55;86.28;101913.94;5069435;28;19951;-58
2022/05/27 04:28:52;;;;;;;;;;;;;;;13.57;85.82;101919.94;5069857;28;19921;-57
2022/05/27 04:31:17;;;;;;;;;;;;;;;13.62;86.19;101923.97;5067801;28;19924;-57
2022/05/27 04:33:43;;;;;;;;;;;;;;;13.67;86.25;101924.34;5067536;28;20383;-57
2022/05/27 04:36:08;;;;;;;;;;;;;;;13.68;86.70;101918.00;5067391;28;19970;-57
2022/05/27 04:38:34;;;;;;;;;;;;;;;13.77;86.87;101921.56;5074701;28;19920;-57
2022/05/27 04:40:59;;;;;;;;;;;;;;;13.75;87.18;101924.38;5074987;28;20011;-57
2022/05/27 04:43:24;;;;;;;;;;;;;;;13.74;86.68;101912.06;5070410;28;20348;-58
2022/05/27 04:45:50;;;;;;;;;;;;;;;13.77;86.57;101916.25;5084085;28;20494;-58
2022/05/27 04:48:16;;;;;;;;;;;;;;;13.83;87.30;101923.63;5070869;28;19920;-59
2022/05/27 04:50:41;;;;;;;;;;;;;;;13.80;87.31;101922.09;5072946;28;19974;-57
2022/05/27 04:53:07;;;;;;;;;;;;;;;13.83;86.55;101915.63;5050955;28;19944;-58
2022/05/27 04:55:34;;;;;;;;;;;;;;;13.91;87.05;101913.00;5069713;28;19966;-58
2022/05/27 04:57:59;;;;;;;;;;;;;;;13.95;87.80;101924.19;5074896;28;20019;-57
2022/05/27 05:00:35;;;;;;;;;;;;;;;13.99;88.11;101920.22;5069828;28;20397;-58
2022/05/27 05:03:01;;;;;;;;;;;;;;;13.94;87.56;101918.03;5074153;28;19924;-58
2022/05/27 05:05:27;;;;;;;;;;;;;;;13.96;87.25;101923.22;5078310;28;20408;-57
2022/05/27 05:07:58;;;;;;;;;;;;;;;14.03;87.25;101931.41;5063040;28;19928;-58
2022/05/27 05:10:24;;;;;;;;;;;;;;;14.09;88.19;101934.28;5069240;28;19928;-58
2022/05/27 05:12:49;;;;;;;;;;;;;;;14.12;87.90;101930.47;5066002;28;20361;-57
2022/05/27 05:15:15;;;;;;;;;;;;;;;14.16;88.04;101931.78;5061664;28;19935;-57
2022/05/27 05:17:41;;;;;;;;;;;;;;;14.20;87.54;101930.50;5068861;28;19956;-57
2022/05/27 05:20:07;;;;;;;;;;;;;;;14.24;88.13;101931.00;5073120;28;20363;-57
2022/05/27 05:22:32;;;;;;;;;;;;;;;14.31;87.90;101937.38;5064325;28;19970;-58
2022/05/27 05:24:57;;;;;;;;;;;;;;;14.36;88.35;101940.41;5068864;28;20294;-58
2022/05/27 05:27:26;;;;;;;;;;;;;;;14.37;88.14;101942.06;5067520;28;20003;-57
2022/05/27 05:29:51;;;;;;;;;;;;;;;14.33;87.99;101943.41;5065145;28;19929;-58
2022/05/27 05:32:17;;;;;;;;;;;;;;;14.36;89.20;101947.59;5064362;28;19925;-58
2022/05/27 05:34:42;;;;;;;;;;;;;;;14.38;90.21;101950.94;5067018;28;19967;-58
2022/05/27 05:37:07;;;;;;;;;;;;;;;14.54;89.64;101958.16;5067779;28;19931;-57
2022/05/27 05:39:32;;;;;;;;;;;;;;;14.35;89.08;101962.75;5067099;28;19921;-58
2022/05/27 05:41:59;;;;;;;;;;;;;;;14.38;88.94;101957.13;5068988;28;20444;-58
2022/05/27 05:44:26;;;;;;;;;;;;;;;14.41;89.40;101961.25;5066704;28;20470;-57
2022/05/27 05:46:52;;;;;;;;;;;;;;;14.43;88.74;101963.78;5069718;28;19924;-57
2022/05/27 05:49:17;;;;;;;;;;;;;;;14.43;88.99;101963.78;5067312;28;19932;-58
2022/05/27 05:51:43;;;;;;;;;;;;;;;14.39;88.51;101969.44;5067192;28;20070;-56
2022/05/27 05:54:08;;;;;;;;;;;;;;;14.46;89.45;101974.16;5052999;28;20279;-55
2022/05/27 05:56:33;;;;;;;;;;;;;;;14.44;89.04;101971.63;5057474;28;20021;-56
2022/05/27 05:58:59;;;;;;;;;;;;;;;14.47;89.04;101976.66;5066170;28;19923;-56
2022/05/27 06:01:24;;;;;;;;;;;;;;;14.49;88.58;101973.81;5051708;28;19947;-56
2022/05/27 06:03:49;;;;;;;;;;;;;;;14.52;88.91;101981.53;5065406;28;20367;-55
2022/05/27 06:06:14;;;;;;;;;;;;;;;14.55;89.05;101977.69;5065679;28;19925;-55
2022/05/27 06:08:40;;;;;;;;;;;;;;;14.56;89.17;101968.69;5059062;28;19940;-56
2022/05/27 06:11:06;;;;;;;;;;;;;;;14.58;88.26;101972.88;5065632;28;19926;-55
2022/05/27 06:13:31;;;;;;;;;;;;;;;14.61;88.63;101967.19;5073593;28;19920;-55
2022/05/27 06:15:57;;;;;;;;;;;;;;;14.58;88.29;101967.53;5063990;28;20015;-60
2022/05/27 06:18:22;;;;;;;;;;;;;;;14.63;88.02;101967.91;5071126;28;19924;-59
2022/05/27 06:20:47;;;;;;;;;;;;;;;14.67;88.17;101968.41;5066376;28;19927;-59
2022/05/27 06:23:13;;;;;;;;;;;;;;;14.78;87.32;101973.47;5071532;28;19929;-59
2022/05/27 06:25:39;;;;;;;;;;;;;;;14.79;87.20;101979.66;5070456;28;19935;-59
2022/05/27 06:36:17;;;;;;;;;;;;;;;15.07;86.12;101987.41;5080420;28;19922;-59
2022/05/27 06:38:43;;;;;;;;;;;;;;;15.10;86.32;101987.06;5073058;28;20269;-60
2022/05/27 06:41:08;;;;;;;;;;;;;;;15.10;85.60;101992.41;5070484;28;19920;-59
2022/05/27 06:43:33;;;;;;;;;;;;;;;15.15;84.61;101989.28;5070300;28;19920;-60
2022/05/27 06:46:00;;;;;;;;;;;;;;;15.24;84.94;101990.13;5072797;28;20007;-60
2022/05/27 06:48:25;;;;;;;;;;;;;;;15.25;84.33;101983.78;5071928;28;20378;-59
2022/05/27 06:50:50;;;;;;;;;;;;;;;15.38;84.00;101989.47;5072213;28;19920;-60
2022/05/27 06:53:16;;;;;;;;;;;;;;;15.30;83.67;101989.47;5071438;28;19921;-59
2022/05/27 06:55:41;;;;;;;;;;;;;;;15.38;83.43;101989.47;5072617;28;20011;-60
2022/05/27 06:58:06;;;;;;;;;;;;;;;15.37;82.95;101987.81;5067446;28;19920;-59
2022/05/27 07:00:31;;;;;;;;;;;;;;;15.40;82.73;101992.81;5065975;28;20251;-60
2022/05/27 07:02:56;;;;;;;;;;;;;;;15.46;82.74;101996.66;5052841;28;19969;-60
2022/05/27 07:05:22;;;;;;;;;;;;;;;15.51;82.03;101993.50;5071095;28;20359;-60
2022/05/27 07:07:49;;;;;;;;;;;;;;;15.58;81.82;102005.19;5073255;28;20065;-59
2022/05/27 07:10:14;;;;;;;;;;;;;;;15.44;80.75;102002.16;5069509;28;20054;-59
2022/05/27 07:12:39;;;;;;;;;;;;;;;15.46;80.48;102013.53;5067133;28;20492;-59
2022/05/27 07:15:05;;;;;;;;;;;;;;;15.36;79.28;102004.84;5068201;28;19924;-59
2022/05/27 07:17:30;;;;;;;;;;;;;;;15.28;80.06;101999.47;5079903;28;19998;-59
2022/05/27 07:19:55;;;;;;;;;;;;;;;15.32;79.48;102001.66;5069855;28;20290;-59
2022/05/27 07:22:20;;;;;;;;;;;;;;;15.24;79.17;102003.50;5066265;28;19963;-58
2022/05/27 07:24:45;;;;;;;;;;;;;;;15.39;79.61;102001.84;5069028;28;19920;-60
2022/05/27 07:27:11;;;;;;;;;;;;;;;15.62;77.17;102005.69;5066298;28;19932;-59
2022/05/27 07:29:36;;;;;;;;;;;;;;;15.53;77.73;101999.50;5064064;28;20465;-59
2022/05/27 07:32:01;;;;;;;;;;;;;;;15.61;77.29;102002.19;5070379;28;19995;-59
2022/05/27 07:34:27;;;;;;;;;;;;;;;15.73;77.79;102002.69;5068139;28;19936;-59
2022/05/27 07:36:53;;;;;;;;;;;;;;;15.81;77.97;102004.53;5073250;28;19985;-58
2022/05/27 07:39:18;;;;;;;;;;;;;;;15.97;76.03;102001.88;5082522;28;20602;-57
2022/05/27 07:41:43;;;;;;;;;;;;;;;16.11;74.09;102005.72;5068492;28;19921;-58
2022/05/27 07:44:08;;;;;;;;;;;;;;;15.94;75.67;102010.22;5071852;28;19920;-57
2022/05/27 07:46:34;;;;;;;;;;;;;;;16.04;76.02;102009.22;5073802;28;19974;-58
2022/05/27 07:49:00;;;;;;;;;;;;;;;16.33;72.70;102010.53;5056869;28;19964;-58
2022/05/27 07:51:25;;;;;;;;;;;;;;;16.26;73.22;102013.88;5070393;28;20009;-57
2022/05/27 07:53:50;;;;;;;;;;;;;;;16.20;72.88;102014.56;5063148;28;20370;-58
2022/05/27 07:56:15;;;;;;;;;;;;;;;16.37;70.27;102022.53;5067233;28;20446;-58
2022/05/27 07:58:41;;;;;;;;;;;;;;;16.04;73.19;102019.94;5067236;28;19924;-57
2022/05/27 08:01:06;;;;;;;;;;;;;;;16.13;72.79;102013.53;5070014;28;20415;-58
2022/05/27 08:03:32;;;;;;;;;;;;;;;16.17;72.79;102022.09;5068251;28;19920;-58
2022/05/27 08:05:58;;;;;;;;;;;;;;;16.25;73.13;102012.19;5077196;28;19927;-58
2022/05/27 08:08:23;;;;;;;;;;;;;;;16.40;72.86;102008.81;5070818;28;20359;-57
2022/05/27 08:10:48;;;;;;;;;;;;;;;16.56;72.40;102001.72;5068841;28;20470;-58
2022/05/27 08:13:14;;;;;;;;;;;;;;;16.62;71.56;102019.81;5068726;28;20402;-58
2022/05/27 08:15:39;;;;;;;;;;;;;;;16.58;69.79;102031.88;5070602;28;19927;-59
2022/05/27 08:18:05;;;;;;;;;;;;;;;16.31;69.51;102031.25;5054700;28;19924;-58
2022/05/27 08:20:31;;;;;;;;;;;;;;;15.98;71.09;102034.78;5070862;28;19928;-57
2022/05/27 08:22:57;;;;;;;;;;;;;;;15.81;71.33;102041.97;5073820;28;19921;-58
2022/05/27 08:25:23;;;;;;;;;;;;;;;15.79;71.53;102039.44;5072941;28;19920;-58
2022/05/27 08:27:48;;;;;;;;;;;;;;;15.81;71.65;102036.63;5073957;28;19924;-58
2022/05/27 08:30:15;;;;;;;;;;;;;;;15.90;72.10;102038.31;5072747;28;19965;-58
2022/05/27 08:32:40;;;;;;;;;;;;;;;16.11;72.22;102031.63;5070137;28;20410;-58
2022/05/27 08:38:03;;;;;;;;;;;;;;;16.50;69.70;102040.75;5075236;28;19927;-58
2022/05/27 08:40:35;;;;;;;;;;;;;;;16.67;69.29;102036.16;5070342;28;19925;-58
2022/05/27 08:43:18;;;;;;;;;;;;;;;16.90;66.21;102030.06;5068865;28;20282;-58
2022/05/27 08:45:43;;;;;;;;;;;;;;;16.68;66.93;102037.84;5071588;28;19920;-59
2022/05/27 08:48:09;;;;;;;;;;;;;;;16.45;67.65;102043.94;5073549;28;19982;-58
2022/05/27 08:50:49;;;;;;;;;;;;;;;16.41;67.93;102042.59;5063617;28;19955;-59
2022/05/27 08:53:31;;;;;;;;;;;;;;;16.39;68.43;102040.09;5043909;28;19925;-59
2022/05/27 09:01:33;;;;;;;;;;;;;;;16.50;67.35;102049.63;5066673;28;20400;-58
2022/05/27 09:04:05;;;;;;;;;;;;;;;16.41;67.53;102047.97;5067760;28;20015;-57
2022/05/27 09:06:43;;;;;;;;;;;;;;;16.57;66.63;102051.63;5061847;28;19925;-59
2022/05/27 09:09:12;;;;;;;;;;;;;;;16.79;66.33;102047.34;5067184;28;19994;-58
2022/05/27 09:11:37;;;;;;;;;;;;;;;16.98;65.94;102054.16;5066209;28;19924;-57
2022/05/27 09:14:12;;;;;;;;;;;;;;;17.23;66.23;102056.72;5077686;28;19922;-60
2022/05/27 09:16:38;;;;;;;;;;;;;;;17.43;65.07;102062.44;5067334;28;19948;-60
2022/05/27 09:19:22;;;;;;;;;;;;;;;17.50;59.21;102062.59;5065994;28;20393;-59
2022/05/27 09:22:06;;;;;;;;;;;;;;;17.36;60.69;102055.31;5065323;28;19920;-59
2022/05/27 09:24:38;;;;;;;;;;;;;;;17.42;59.92;102054.59;5063016;28;19927;-57
2022/05/27 09:27:08;;;;;;;;;;;;;;;17.39;61.02;102071.88;5063487;28;19928;-59
2022/05/27 09:29:48;;;;;;;;;;;;;;;17.19;59.77;102076.84;5063880;28;20347;-58
2022/05/27 09:32:21;;;;;;;;;;;;;;;17.06;58.87;102077.41;5064522;28;19966;-58
2022/05/27 09:34:47;;;;;;;;;;;;;;;16.88;57.94;102075.75;5071831;28;19924;-58
2022/05/27 09:37:19;;;;;;;;;;;;;;;17.05;59.55;102084.63;5072463;28;20313;-58
2022/05/27 09:39:44;;;;;;;;;;;;;;;17.25;59.38;102084.19;5069762;28;19970;-58
2022/05/27 09:42:28;;;;;;;;;;;;;;;17.23;58.17;102075.50;5068167;28;19928;-58
2022/05/27 09:44:55;;;;;;;;;;;;;;;16.96;58.05;102093.66;5062841;28;19917;-58
2022/05/27 09:47:21;;;;;;;;;;;;;;;16.81;59.58;102093.53;5073430;28;20298;-58
2022/05/27 09:49:49;;;;;;;;;;;;;;;16.97;55.07;102099.88;5055826;28;20367;-58
2022/05/27 09:52:15;;;;;;;;;;;;;;;17.02;56.50;102098.34;5072095;28;19920;-58
2022/05/27 09:54:49;;;;;;;;;;;;;;;17.04;57.06;102091.00;5070978;28;20382;-58
2022/05/27 09:57:25;;;;;;;;;;;;;;;17.27;55.00;102095.56;5069927;28;20306;-58
2022/05/27 09:59:56;;;;;;;;;;;;;;;17.19;57.77;102092.94;5072477;28;20351;-57
2022/05/27 10:02:21;;;;;;;;;;;;;;;17.44;55.72;102095.47;5075754;28;19977;-58
2022/05/27 10:04:50;;;;;;;;;;;;;;;17.48;54.94;102102.16;5072085;28;19920;-58
2022/05/27 10:07:23;;;;;;;;;;;;;;;17.61;53.86;102099.72;5071353;28;20256;-58
2022/05/27 10:09:48;;;;;;;;;;;;;;;17.66;52.15;102098.38;5070309;28;19924;-58
2022/05/27 10:12:26;;;;;;;;;;;;;;;17.55;53.78;102096.91;5072634;28;19916;-58
2022/05/27 10:14:51;;;;;;;;;;;;;;;17.49;54.79;102095.78;5067832;28;20271;-58
2022/05/27 10:17:27;;;;;;;;;;;;;;;17.67;53.97;102097.34;5072596;28;19920;-58
2022/05/27 10:19:52;;;;;;;;;;;;;;;17.75;55.40;102097.28;5071387;28;19920;-58
2022/05/27 10:22:23;;;;;;;;;;;;;;;17.97;52.45;102097.47;5072716;28;19924;-58
2022/05/27 10:24:55;;;;;;;;;;;;;;;18.05;50.88;102102.75;5072681;28;19924;-58
2022/05/27 10:27:23;;;;;;;;;;;;;;;17.80;50.58;102094.09;5063175;28;19943;-58
2022/05/27 10:29:48;;;;;;;;;;;;;;;17.58;50.54;102100.06;5069598;28;19924;-57
2022/05/27 10:32:24;;;;;;;;;;;;;;;17.25;52.14;102096.75;5071772;28;19920;-58
2022/05/27 10:34:49;;;;;;;;;;;;;;;17.06;50.73;102099.69;5071502;28;19924;-58
2022/05/27 10:37:33;;;;;;;;;;;;;;;17.17;55.64;102100.31;5066214;28;19986;-58
2022/05/27 10:39:58;;;;;;;;;;;;;;;17.44;53.03;102100.84;5064743;28;20381;-58
2022/05/27 10:42:26;;;;;;;;;;;;;;;17.41;51.64;102098.53;5063470;28;20384;-59
2022/05/27 10:45:00;;;;;;;;;;;;;;;17.28;51.13;102107.97;5066405;28;19928;-58
2022/05/27 10:47:32;;;;;;;;;;;;;;;17.01;51.76;102118.09;5063095;28;19920;-58
2022/05/27 10:50:08;;;;;;;;;;;;;;;16.92;53.34;102108.41;5062934;28;19925;-57
2022/05/27 10:52:41;;;;;;;;;;;;;;;17.10;52.73;102104.69;5061984;28;20085;-57
2022/05/27 10:55:42;;;;;;;;;;;;;;;17.47;50.31;102100.50;5065705;28;19921;-59
2022/05/27 11:04:21;;;;;;;;;;;;;;;17.99;51.60;102114.22;5042571;28;19932;-58
2022/05/27 11:06:46;;;;;;;;;;;;;;;17.98;50.06;102109.88;5064033;28;19935;-58
2022/05/27 11:09:30;;;;;;;;;;;;;;;18.01;49.00;102101.47;5062724;28;19920;-58
2022/05/27 11:12:01;;;;;;;;;;;;;;;17.78;49.59;102101.47;5061941;28;19960;-57
2022/05/27 11:17:21;;;;;;;;;;;;;;;17.43;49.33;102109.91;5060297;28;19971;-58
2022/05/27 11:20:10;;;;;;;;;;;;;;;17.53;49.52;102110.50;5071135;28;19982;-58
2022/05/27 11:22:37;;;;;;;;;;;;;;;17.40;49.82;102104.88;5062933;28;19974;-57
2022/05/27 11:25:21;;;;;;;;;;;;;;;17.37;50.01;102115.97;5068307;28;20023;-57
2022/05/27 11:28:10;;;;;;;;;;;;;;;17.42;49.03;102109.03;5071207;28;19924;-59
2022/05/27 11:30:55;;;;;;;;;;;;;;;17.29;50.23;102109.63;5070712;28;19927;-58
2022/05/27 11:33:39;;;;;;;;;;;;;;;17.60;50.23;102111.47;5049865;28;20370;-59
2022/05/27 11:36:19;;;;;;;;;;;;;;;17.46;51.17;102114.88;5070566;28;21931;-58
2022/05/27 11:38:52;;;;;;;;;;;;;;;17.34;51.61;102118.00;5065104;28;19949;-58
2022/05/27 11:41:23;;;;;;;;;;;;;;;17.28;52.61;102128.56;5068268;28;19981;-59
2022/05/27 11:44:02;;;;;;;;;;;;;;;17.47;51.65;102108.53;5067174;28;19928;-58
2022/05/27 11:46:43;;;;;;;;;;;;;;;17.73;50.26;102126.16;5070067;28;20259;-57
2022/05/27 11:49:18;;;;;;;;;;;;;;;17.72;49.58;102124.47;5067153;28;20305;-56
2022/05/27 11:51:43;;;;;;;;;;;;;;;17.70;49.49;102121.13;5070581;28;19971;-56
2022/05/27 11:54:27;;;;;;;;;;;;;;;17.63;49.34;102134.41;5072687;28;19976;-55
2022/05/27 11:57:07;;;;;;;;;;;;;;;17.66;49.11;102119.81;5054463;28;20385;-56
2022/05/27 11:59:36;;;;;;;;;;;;;;;17.73;49.45;102115.41;5074957;28;19967;-55
2022/05/27 12:02:06;;;;;;;;;;;;;;;17.64;48.79;102129.88;5078452;28;19920;-55
2022/05/27 12:04:43;;;;;;;;;;;;;;;17.70;47.58;102127.34;5067205;28;19924;-57
2022/05/27 12:07:17;;;;;;;;;;;;;;;17.66;48.84;102126.00;5050589;28;19956;-55
2022/05/27 12:09:52;;;;;;;;;;;;;;;17.96;47.89;102125.31;5065946;28;19916;-55
2022/05/27 12:12:20;;;;;;;;;;;;;;;17.98;48.37;102123.28;5077284;28;19926;-55
2022/05/27 12:14:55;;;;;;;;;;;;;;;18.05;48.63;102123.41;5076338;28;20015;-54
2022/05/27 12:17:22;;;;;;;;;;;;;;;18.09;46.80;102120.22;5074607;28;19920;-55
2022/05/27 12:19:55;;;;;;;;;;;;;;;18.13;49.13;102120.69;5075396;28;19924;-55
2022/05/27 12:22:24;;;;;;;;;;;;;;;18.37;47.46;102116.94;5074789;28;19935;-57
2022/05/27 12:24:53;;;;;;;;;;;;;;;18.23;49.75;102134.69;5067479;28;20373;-56
2022/05/27 12:27:19;;;;;;;;;;;;;;;18.17;48.27;102123.84;5072005;28;19928;-56
2022/05/27 12:29:47;;;;;;;;;;;;;;;18.07;48.21;102124.94;5072497;28;19931;-56
2022/05/27 12:32:13;;;;;;;;;;;;;;;18.04;48.59;102125.25;5074751;28;19959;-56
2022/05/27 12:34:43;;;;;;;;;;;;;;;18.17;48.38;102126.50;5070032;28;19981;-55
2022/05/27 12:37:25;;;;;;;;;;;;;;;18.27;48.56;102122.56;5070853;28;19924;-56
2022/05/27 12:39:53;;;;;;;;;;;;;;;18.32;47.93;102116.66;5068497;28;20290;-58
2022/05/27 12:42:20;;;;;;;;;;;;;;;18.39;46.43;102122.97;5072834;28;19920;-58
2022/05/27 12:44:46;;;;;;;;;;;;;;;18.49;45.47;102135.28;5062364;28;20283;-58
2022/05/27 12:47:15;;;;;;;;;;;;;;;18.27;46.66;102127.94;5056961;28;19924;-58
2022/05/27 12:49:43;;;;;;;;;;;;;;;18.32;46.98;102129.25;5088429;28;19996;-58
2022/05/27 12:52:28;;;;;;;;;;;;;;;18.23;47.18;102131.16;5078630;28;20395;-58
2022/05/27 12:54:54;;;;;;;;;;;;;;;18.25;46.32;102139.84;5056760;28;19943;-58
2022/05/27 13:03:30;;;;;;;;;;;;;;;18.11;45.47;102145.00;5073832;28;19966;-59
2022/05/27 13:06:11;;;;;;;;;;;;;;;18.28;47.35;102151.09;5063240;28;19916;-58
2022/05/27 13:08:51;;;;;;;;;;;;;;;18.34;44.73;102146.84;5072269;28;19916;-57
2022/05/27 13:11:22;;;;;;;;;;;;;;;18.50;44.44;102142.34;5073401;28;19927;-59
2022/05/27 13:13:50;;;;;;;;;;;;;;;18.55;43.85;102156.03;5061373;28;20002;-59
2022/05/27 13:16:25;;;;;;;;;;;;;;;18.45;45.69;102150.13;5069052;28;19925;-59
2022/05/27 13:19:03;;;;;;;;;;;;;;;18.73;43.81;102146.78;5060426;28;19929;-58
2022/05/27 13:21:47;;;;;;;;;;;;;;;18.85;43.07;102156.06;5083284;28;19970;-59